sensor_id;sensor_type;location;lat;lon;timestamp;P1;durP1;ratioP1;P2;durP2;ratioP2
76703;SDS011;70080;44.504;0.168;2024-01-16T00:11:43;19.93;;;6.60;;
76703;SDS011;70080;44.504;0.168;2024-01-16T00:27:01;18.23;;;5.47;;
76703;SDS011;70080;44.504;0.168;2024-01-16T00:42:22;12.43;;;3.90;;
76703;SDS011;70080;44.504;0.168;2024-01-16T00:57:41;13.83;;;5.80;;
76703;SDS011;70080;44.504;0.168;2024-01-16T01:13:00;15.17;;;4.10;;
76703;SDS011;70080;44.504;0.168;2024-01-16T01:28:19;16.87;;;5.83;;
76703;SDS011;70080;44.504;0.168;2024-01-16T01:43:38;11.07;;;5.57;;
76703;SDS011;70080;44.504;0.168;2024-01-16T01:58:59;14.53;;;4.37;;
76703;SDS011;70080;44.504;0.168;2024-01-16T02:14:17;9.57;;;3.63;;
76703;SDS011;70080;44.504;0.168;2024-01-16T02:29:41;10.83;;;4.50;;
76703;SDS011;70080;44.504;0.168;2024-01-16T02:44:55;12.57;;;3.90;;
76703;SDS011;70080;44.504;0.168;2024-01-16T03:00:16;9.80;;;3.47;;
76703;SDS011;70080;44.504;0.168;2024-01-16T03:15:33;7.77;;;3.17;;
76703;SDS011;70080;44.504;0.168;2024-01-16T03:30:55;18.77;;;5.80;;
76703;SDS011;70080;44.504;0.168;2024-01-16T03:46:14;15.40;;;4.67;;
76703;SDS011;70080;44.504;0.168;2024-01-16T04:01:34;15.23;;;6.17;;
76703;SDS011;70080;44.504;0.168;2024-01-16T04:16:53;17.00;;;5.37;;
76703;SDS011;70080;44.504;0.168;2024-01-16T04:32:14;13.33;;;4.60;;
76703;SDS011;70080;44.504;0.168;2024-01-16T04:47:34;15.67;;;5.97;;
76703;SDS011;70080;44.504;0.168;2024-01-16T05:02:52;17.00;;;5.20;;
76703;SDS011;70080;44.504;0.168;2024-01-16T05:18:12;14.50;;;4.30;;
76703;SDS011;70080;44.504;0.168;2024-01-16T05:33:33;17.20;;;5.30;;
76703;SDS011;70080;44.504;0.168;2024-01-16T05:48:51;12.40;;;4.10;;
76703;SDS011;70080;44.504;0.168;2024-01-16T06:04:12;12.50;;;4.47;;
76703;SDS011;70080;44.504;0.168;2024-01-16T06:19:31;13.30;;;3.30;;
76703;SDS011;70080;44.504;0.168;2024-01-16T06:34:51;12.77;;;3.70;;
76703;SDS011;70080;44.504;0.168;2024-01-16T06:50:11;9.17;;;2.33;;
76703;SDS011;70080;44.504;0.168;2024-01-16T07:05:30;17.10;;;3.57;;
76703;SDS011;70080;44.504;0.168;2024-01-16T07:20:50;10.63;;;4.77;;
76703;SDS011;70080;44.504;0.168;2024-01-16T07:36:09;20.50;;;5.03;;
76703;SDS011;70080;44.504;0.168;2024-01-16T07:51:28;11.83;;;4.17;;
76703;SDS011;70080;44.504;0.168;2024-01-16T08:06:46;16.43;;;4.23;;
76703;SDS011;70080;44.504;0.168;2024-01-16T08:22:07;22.67;;;8.27;;
76703;SDS011;70080;44.504;0.168;2024-01-16T08:37:27;18.70;;;9.20;;
76703;SDS011;70080;44.504;0.168;2024-01-16T08:52:47;16.13;;;7.63;;
76703;SDS011;70080;44.504;0.168;2024-01-16T09:08:07;13.57;;;6.57;;
76703;SDS011;70080;44.504;0.168;2024-01-16T09:23:25;13.07;;;6.23;;
76703;SDS011;70080;44.504;0.168;2024-01-16T09:38:45;12.30;;;5.70;;
76703;SDS011;70080;44.504;0.168;2024-01-16T09:54:09;-1.00;;;-1.00;;
76703;SDS011;70080;44.504;0.168;2024-01-16T10:09:26;17.80;;;6.67;;
76703;SDS011;70080;44.504;0.168;2024-01-16T10:24:49;3.53;;;2.10;;
76703;SDS011;70080;44.504;0.168;2024-01-16T10:40:08;1.10;;;0.90;;
76703;SDS011;70080;44.504;0.168;2024-01-16T10:55:29;1.33;;;0.40;;
76703;SDS011;70080;44.504;0.168;2024-01-16T11:10:47;0.50;;;0.30;;
76703;SDS011;70080;44.504;0.168;2024-01-16T11:56:52;1.10;;;0.47;;
76703;SDS011;70080;44.504;0.168;2024-01-16T12:12:03;2.10;;;0.73;;
76703;SDS011;70080;44.504;0.168;2024-01-16T12:27:23;2.00;;;0.40;;
76703;SDS011;70080;44.504;0.168;2024-01-16T12:42:43;0.30;;;0.30;;
76703;SDS011;70080;44.504;0.168;2024-01-16T12:58:13;0.37;;;0.30;;
76703;SDS011;70080;44.504;0.168;2024-01-16T13:13:23;0.33;;;0.30;;
76703;SDS011;70080;44.504;0.168;2024-01-16T13:28:43;0.53;;;0.53;;
76703;SDS011;70080;44.504;0.168;2024-01-16T13:44:02;0.20;;;0.20;;
76703;SDS011;70080;44.504;0.168;2024-01-16T13:59:23;2.27;;;0.37;;
76703;SDS011;70080;44.504;0.168;2024-01-16T14:14:42;3.00;;;0.43;;
76703;SDS011;70080;44.504;0.168;2024-01-16T14:30:00;5.03;;;0.80;;
76703;SDS011;70080;44.504;0.168;2024-01-16T14:45:20;3.20;;;0.73;;
76703;SDS011;70080;44.504;0.168;2024-01-16T15:00:40;2.03;;;0.60;;
76703;SDS011;70080;44.504;0.168;2024-01-16T15:15:58;0.37;;;0.37;;
76703;SDS011;70080;44.504;0.168;2024-01-16T15:31:15;1.73;;;0.83;;
76703;SDS011;70080;44.504;0.168;2024-01-16T16:01:54;5.27;;;1.40;;
76703;SDS011;70080;44.504;0.168;2024-01-16T16:17:12;2.27;;;1.47;;
76703;SDS011;70080;44.504;0.168;2024-01-16T16:32:32;2.37;;;1.43;;
76703;SDS011;70080;44.504;0.168;2024-01-16T16:47:51;7.13;;;2.60;;
76703;SDS011;70080;44.504;0.168;2024-01-16T17:03:10;5.77;;;2.83;;
76703;SDS011;70080;44.504;0.168;2024-01-16T17:18:29;2.90;;;2.10;;
76703;SDS011;70080;44.504;0.168;2024-01-16T17:33:48;6.50;;;2.67;;
76703;SDS011;70080;44.504;0.168;2024-01-16T18:04:28;8.97;;;2.90;;
76703;SDS011;70080;44.504;0.168;2024-01-16T18:19:50;10.40;;;3.40;;
76703;SDS011;70080;44.504;0.168;2024-01-16T18:35:09;9.90;;;2.70;;
76703;SDS011;70080;44.504;0.168;2024-01-16T18:50:33;10.43;;;2.30;;
76703;SDS011;70080;44.504;0.168;2024-01-16T19:05:53;3.67;;;1.93;;
76703;SDS011;70080;44.504;0.168;2024-01-16T19:21:10;3.37;;;1.43;;
76703;SDS011;70080;44.504;0.168;2024-01-16T19:36:27;5.93;;;2.60;;
76703;SDS011;70080;44.504;0.168;2024-01-16T19:51:46;4.67;;;2.17;;
76703;SDS011;70080;44.504;0.168;2024-01-16T20:07:05;3.60;;;2.27;;
76703;SDS011;70080;44.504;0.168;2024-01-16T20:22:24;2.13;;;1.93;;
76703;SDS011;70080;44.504;0.168;2024-01-16T20:37:43;11.43;;;1.87;;
76703;SDS011;70080;44.504;0.168;2024-01-16T20:53:03;3.47;;;1.20;;
76703;SDS011;70080;44.504;0.168;2024-01-16T21:08:22;3.67;;;1.70;;
76703;SDS011;70080;44.504;0.168;2024-01-16T21:23:42;4.53;;;1.93;;
76703;SDS011;70080;44.504;0.168;2024-01-16T21:39:01;3.50;;;1.43;;
76703;SDS011;70080;44.504;0.168;2024-01-16T21:54:20;5.23;;;1.80;;
76703;SDS011;70080;44.504;0.168;2024-01-16T22:09:42;-1.00;;;-1.00;;
76703;SDS011;70080;44.504;0.168;2024-01-16T22:24:59;2.07;;;1.60;;
76703;SDS011;70080;44.504;0.168;2024-01-16T22:40:18;3.23;;;1.83;;
76703;SDS011;70080;44.504;0.168;2024-01-16T22:55:37;8.27;;;2.43;;
76703;SDS011;70080;44.504;0.168;2024-01-16T23:10:57;2.73;;;1.50;;
76703;SDS011;70080;44.504;0.168;2024-01-16T23:26:16;4.73;;;1.70;;
76703;SDS011;70080;44.504;0.168;2024-01-16T23:41:35;4.87;;;2.00;;
76703;SDS011;70080;44.504;0.168;2024-01-16T23:56:55;2.63;;;1.80;;
